createdAt,value
2018-12-31T00:02:29.591Z,1.60
2018-12-31T00:05:00.627Z,1.80
2018-12-31T00:07:31.621Z,1.70
2018-12-31T00:10:03.173Z,1.80
2018-12-31T00:12:34.762Z,1.45
2018-12-31T00:15:06.705Z,1.37
2018-12-31T00:17:37.719Z,1.27
2018-12-31T00:20:09.336Z,1.42
2018-12-31T00:22:40.924Z,1.70
2018-12-31T00:25:13.071Z,1.70
2018-12-31T00:27:44.649Z,1.32
2018-12-31T00:30:16.521Z,1.60
2018-12-31T00:32:48.097Z,1.70
2018-12-31T00:35:19.750Z,1.47
2018-12-31T00:37:51.111Z,1.62
2018-12-31T00:40:22.445Z,1.42
2018-12-31T00:42:59.000Z,1.30
2018-12-31T00:45:27.908Z,1.52
2018-12-31T00:47:58.909Z,1.50
2018-12-31T00:50:30.293Z,1.52
2018-12-31T00:53:01.602Z,1.60
2018-12-31T00:55:34.944Z,1.50
2018-12-31T00:58:06.722Z,1.72
2018-12-31T01:00:38.648Z,1.70
2018-12-31T01:03:10.822Z,1.65
2018-12-31T01:05:42.684Z,1.30
2018-12-31T01:08:14.492Z,1.30
2018-12-31T01:10:46.973Z,1.60
2018-12-31T01:13:18.565Z,1.50
2018-12-31T01:15:49.590Z,1.40
2018-12-31T01:18:20.920Z,1.42
2018-12-31T01:20:52.491Z,1.60
2018-12-31T01:23:24.369Z,1.90
2018-12-31T01:25:56.246Z,1.85
2018-12-31T01:28:27.839Z,1.60
2018-12-31T01:30:59.415Z,1.60
2018-12-31T01:33:31.192Z,2.12
2018-12-31T01:36:02.498Z,2.10
2018-12-31T01:38:34.047Z,2.30
2018-12-31T01:41:05.062Z,1.67
2018-12-31T01:43:37.137Z,2.08
2018-12-31T01:46:09.059Z,2.30
2018-12-31T01:48:41.941Z,2.40
2018-12-31T01:51:13.282Z,2.40
2018-12-31T01:53:45.369Z,2.10
2018-12-31T01:56:17.309Z,1.90
2018-12-31T01:58:49.046Z,2.83
2018-12-31T02:01:21.026Z,1.98
2018-12-31T02:03:52.340Z,2.33
2018-12-31T02:06:23.621Z,2.55
2018-12-31T02:08:55.713Z,1.80
2018-12-31T02:11:27.795Z,2.33
2018-12-31T02:13:58.795Z,2.20
2018-12-31T02:16:30.461Z,1.92
2018-12-31T02:19:02.311Z,1.55
2018-12-31T02:21:34.298Z,1.45
2018-12-31T02:24:06.188Z,1.52
2018-12-31T02:26:37.479Z,1.20
2018-12-31T02:29:09.342Z,1.65
2018-12-31T02:31:40.758Z,1.60
2018-12-31T02:34:12.403Z,1.75
2018-12-31T02:36:43.958Z,1.87
2018-12-31T02:39:15.300Z,1.75
2018-12-31T02:41:46.657Z,1.85
2018-12-31T02:44:18.191Z,1.90
2018-12-31T02:46:50.115Z,1.82
2018-12-31T02:49:21.748Z,1.70
2018-12-31T02:51:53.403Z,1.70
2018-12-31T02:54:25.495Z,1.85
2018-12-31T02:56:57.413Z,2.00
2018-12-31T02:59:28.756Z,2.20
2018-12-31T03:02:00.655Z,2.27
2018-12-31T03:04:32.282Z,2.25
2018-12-31T03:07:04.031Z,2.58
2018-12-31T03:09:35.802Z,2.50
2018-12-31T03:12:07.819Z,2.22
2018-12-31T03:14:39.874Z,2.58
2018-12-31T03:17:11.182Z,2.60
2018-12-31T03:19:43.269Z,2.50
2018-12-31T03:22:15.393Z,2.70
2018-12-31T03:24:47.062Z,3.15
2018-12-31T03:27:22.342Z,3.30
2018-12-31T03:29:52.225Z,3.20
2018-12-31T03:32:24.180Z,2.98
2018-12-31T03:34:56.447Z,3.05
2018-12-31T03:37:28.526Z,3.00
2018-12-31T03:39:59.571Z,3.40
2018-12-31T03:42:31.412Z,3.47
2018-12-31T03:45:03.187Z,3.63
2018-12-31T03:47:34.490Z,3.90
2018-12-31T03:50:06.611Z,3.77
2018-12-31T03:52:37.995Z,4.13
2018-12-31T03:55:09.271Z,4.77
2018-12-31T03:57:41.079Z,5.23
2018-12-31T04:00:12.655Z,5.50
2018-12-31T04:02:44.035Z,5.10
2018-12-31T04:05:15.794Z,4.63
2018-12-31T04:07:52.999Z,5.58
2018-12-31T04:10:21.250Z,5.20
2018-12-31T04:12:52.910Z,5.93
2018-12-31T04:15:24.662Z,5.60
2018-12-31T04:17:56.413Z,5.90
2018-12-31T04:20:27.973Z,5.87
2018-12-31T04:22:59.608Z,5.57
2018-12-31T04:25:31.260Z,5.97
2018-12-31T04:28:03.373Z,6.80
2018-12-31T04:30:35.319Z,5.90
2018-12-31T04:33:06.972Z,6.80
2018-12-31T04:35:38.596Z,6.12
2018-12-31T04:38:10.217Z,5.78
2018-12-31T04:40:41.830Z,5.40
2018-12-31T04:43:13.792Z,5.77
2018-12-31T04:45:45.307Z,5.13
2018-12-31T04:48:17.227Z,5.03
2018-12-31T04:50:49.076Z,4.57
2018-12-31T04:53:20.800Z,4.27
2018-12-31T04:55:52.042Z,4.60
2018-12-31T04:58:24.032Z,6.13
2018-12-31T05:00:55.588Z,5.00
2018-12-31T05:03:27.474Z,5.30
2018-12-31T05:05:59.237Z,5.60
2018-12-31T05:08:30.547Z,5.60
2018-12-31T05:11:01.569Z,5.57
2018-12-31T05:13:33.334Z,7.00
2018-12-31T05:16:04.851Z,5.23
2018-12-31T05:18:36.678Z,5.53
2018-12-31T05:21:08.299Z,5.50
2018-12-31T05:23:39.552Z,4.40
2018-12-31T05:26:10.579Z,4.67
2018-12-31T05:28:42.107Z,4.77
2018-12-31T05:31:13.670Z,4.80
2018-12-31T05:33:44.925Z,5.50
2018-12-31T05:36:16.571Z,5.57
2018-12-31T05:38:48.313Z,5.35
2018-12-31T05:41:19.907Z,5.70
2018-12-31T05:43:51.743Z,6.93
2018-12-31T05:46:23.314Z,8.37
2018-12-31T05:48:54.633Z,8.45
2018-12-31T05:51:26.388Z,9.13
2018-12-31T05:53:57.971Z,9.47
2018-12-31T05:56:29.633Z,9.80
2018-12-31T05:59:01.451Z,11.03
2018-12-31T06:01:33.250Z,9.70
2018-12-31T06:04:05.143Z,9.80
2018-12-31T06:06:37.072Z,10.03
2018-12-31T06:09:09.730Z,9.50
2018-12-31T06:11:41.298Z,9.30
2018-12-31T06:14:12.614Z,9.47
2018-12-31T06:16:44.651Z,9.33
2018-12-31T06:19:16.470Z,8.90
2018-12-31T06:21:47.597Z,9.63
2018-12-31T06:24:19.165Z,9.27
2018-12-31T06:26:50.793Z,9.30
2018-12-31T06:29:21.787Z,9.80
2018-12-31T06:31:53.407Z,9.05
2018-12-31T06:34:25.294Z,8.77
2018-12-31T06:36:57.021Z,8.67
2018-12-31T06:39:28.593Z,9.37
2018-12-31T06:42:00.364Z,8.47
2018-12-31T06:44:31.984Z,9.20
2018-12-31T06:47:03.753Z,8.47
2018-12-31T06:49:34.752Z,9.93
2018-12-31T06:52:06.665Z,10.57
2018-12-31T06:54:37.988Z,11.30
2018-12-31T06:57:09.753Z,11.30
2018-12-31T06:59:41.610Z,11.50
2018-12-31T07:02:13.264Z,11.70
2018-12-31T07:04:45.177Z,12.33
2018-12-31T07:07:16.956Z,14.27
2018-12-31T07:09:48.641Z,12.77
2018-12-31T07:12:20.296Z,11.33
2018-12-31T07:14:51.634Z,12.57
2018-12-31T07:17:26.050Z,11.13
2018-12-31T07:19:57.492Z,12.00
2018-12-31T07:22:29.069Z,11.63
2018-12-31T07:25:01.254Z,11.60
2018-12-31T07:27:32.524Z,12.10
2018-12-31T07:30:03.647Z,10.80
2018-12-31T07:32:35.460Z,11.40
2018-12-31T07:35:07.228Z,11.33
2018-12-31T07:37:39.212Z,10.80
2018-12-31T07:40:10.847Z,11.73
2018-12-31T07:42:42.503Z,10.03
2018-12-31T07:45:14.393Z,10.73
2018-12-31T07:47:46.004Z,10.60
2018-12-31T07:50:17.755Z,11.27
2018-12-31T07:52:49.424Z,11.63
2018-12-31T07:55:21.184Z,11.27
2018-12-31T07:57:52.435Z,10.60
2018-12-31T08:00:24.533Z,12.93
2018-12-31T08:02:56.460Z,11.67
2018-12-31T08:05:27.802Z,11.77
2018-12-31T08:07:59.333Z,11.53
2018-12-31T08:10:31.018Z,11.80
2018-12-31T08:13:02.647Z,10.00
2018-12-31T08:15:34.701Z,11.57
2018-12-31T08:18:06.818Z,12.03
2018-12-31T08:20:38.892Z,11.50
2018-12-31T08:23:10.721Z,11.50
2018-12-31T08:25:42.066Z,10.90
2018-12-31T08:28:13.721Z,12.23
2018-12-31T08:30:45.832Z,10.67
2018-12-31T08:33:16.857Z,10.70
2018-12-31T08:35:48.097Z,10.50
2018-12-31T08:38:19.127Z,9.53
2018-12-31T08:40:51.014Z,10.60
2018-12-31T08:43:22.604Z,10.47
2018-12-31T08:45:54.182Z,10.77
2018-12-31T08:48:25.832Z,10.87
2018-12-31T08:50:57.913Z,11.47
2018-12-31T08:53:29.442Z,12.30
2018-12-31T08:56:01.325Z,18.43
2018-12-31T08:58:33.147Z,18.33
2018-12-31T09:01:04.149Z,27.40
2018-12-31T09:03:36.021Z,18.23
2018-12-31T09:06:07.901Z,12.13
2018-12-31T09:08:40.065Z,10.50
2018-12-31T09:11:11.857Z,13.00
2018-12-31T09:13:44.147Z,9.67
2018-12-31T09:16:15.772Z,9.57
2018-12-31T09:18:47.434Z,9.63
2018-12-31T09:21:18.745Z,8.20
2018-12-31T09:23:50.335Z,6.37
2018-12-31T09:26:22.197Z,8.43
2018-12-31T09:28:54.141Z,8.03
2018-12-31T09:31:26.338Z,7.70
2018-12-31T09:33:58.534Z,7.40
2018-12-31T09:36:30.352Z,7.80
2018-12-31T09:39:01.843Z,7.00
2018-12-31T09:41:34.977Z,7.47
2018-12-31T09:44:06.602Z,6.00
2018-12-31T09:46:38.631Z,5.10
2018-12-31T09:49:10.694Z,4.30
2018-12-31T09:51:41.962Z,3.73
2018-12-31T09:54:13.561Z,2.43
2018-12-31T09:56:45.212Z,2.43
2018-12-31T09:59:17.451Z,2.20
2018-12-31T10:01:49.542Z,2.50
2018-12-31T10:04:21.598Z,2.57
2018-12-31T10:06:53.367Z,3.53
2018-12-31T10:09:25.027Z,3.03
2018-12-31T10:11:56.649Z,3.10
2018-12-31T10:14:28.388Z,3.03
2018-12-31T10:17:00.702Z,3.00
2018-12-31T10:19:32.442Z,2.87
2018-12-31T10:22:04.011Z,2.80
2018-12-31T10:24:35.932Z,2.90
2018-12-31T10:27:07.807Z,2.37
2018-12-31T10:29:39.698Z,2.80
2018-12-31T10:32:11.515Z,3.10
2018-12-31T10:34:43.082Z,2.77
2018-12-31T10:37:14.722Z,2.87
2018-12-31T10:39:46.061Z,2.60
2018-12-31T10:42:17.626Z,4.50
2018-12-31T10:44:49.423Z,2.20
2018-12-31T10:47:20.972Z,2.60
2018-12-31T10:49:52.538Z,2.70
2018-12-31T10:52:24.521Z,2.20
2018-12-31T10:54:55.526Z,1.40
2018-12-31T10:57:27.722Z,1.77
2018-12-31T10:59:59.571Z,1.73
2018-12-31T11:02:30.938Z,1.60
2018-12-31T11:05:01.951Z,1.73
2018-12-31T11:07:33.453Z,2.30
2018-12-31T11:10:05.995Z,1.80
2018-12-31T11:12:37.279Z,1.80
2018-12-31T11:15:08.623Z,1.30
2018-12-31T11:17:40.742Z,1.60
2018-12-31T11:20:12.379Z,1.40
2018-12-31T11:22:43.999Z,1.17
2018-12-31T11:25:15.882Z,1.40
2018-12-31T11:27:47.691Z,1.10
2018-12-31T11:30:19.273Z,1.20
2018-12-31T11:32:51.129Z,2.40
2018-12-31T11:35:22.933Z,1.70
2018-12-31T11:37:54.580Z,1.20
2018-12-31T11:40:26.442Z,1.50
2018-12-31T11:42:58.183Z,1.30
2018-12-31T11:45:29.451Z,1.13
2018-12-31T11:48:01.771Z,1.10
2018-12-31T11:50:33.569Z,1.10
2018-12-31T11:53:04.915Z,0.87
2018-12-31T11:55:36.281Z,1.00
2018-12-31T11:58:08.458Z,1.07
2018-12-31T12:00:40.202Z,0.90
2018-12-31T12:03:12.117Z,1.03
2018-12-31T12:05:43.699Z,0.93
2018-12-31T12:08:15.028Z,1.03
2018-12-31T12:10:46.419Z,0.80
2018-12-31T12:13:17.416Z,0.83
2018-12-31T12:15:49.526Z,1.00
2018-12-31T12:18:21.136Z,0.60
2018-12-31T12:20:53.982Z,0.63
2018-12-31T12:23:25.633Z,0.60
2018-12-31T12:25:57.447Z,1.80
2018-12-31T12:28:28.982Z,2.63
2018-12-31T12:31:00.863Z,2.20
2018-12-31T12:33:32.464Z,0.90
2018-12-31T12:36:04.026Z,1.93
2018-12-31T12:38:35.591Z,0.80
2018-12-31T12:41:07.912Z,1.10
2018-12-31T12:43:39.718Z,0.87
2018-12-31T12:46:11.815Z,1.20
2018-12-31T12:48:43.781Z,1.90
2018-12-31T12:51:15.803Z,1.20
2018-12-31T12:53:47.084Z,1.13
2018-12-31T12:56:18.769Z,1.60
2018-12-31T12:58:50.802Z,1.40
2018-12-31T13:01:21.818Z,1.50
2018-12-31T13:03:53.946Z,0.90
2018-12-31T13:06:25.254Z,0.90
2018-12-31T13:08:57.220Z,1.00
2018-12-31T13:11:28.530Z,0.93
2018-12-31T13:14:00.769Z,0.90
2018-12-31T13:16:32.396Z,1.00
2018-12-31T13:19:04.244Z,0.80
2018-12-31T13:21:36.391Z,1.17
2018-12-31T13:24:07.968Z,1.00
2018-12-31T13:26:43.559Z,0.80
2018-12-31T13:29:13.658Z,0.80
2018-12-31T13:31:44.954Z,0.93
2018-12-31T13:34:16.744Z,1.17
2018-12-31T13:36:48.364Z,1.53
2018-12-31T13:39:19.632Z,1.27
2018-12-31T13:41:51.659Z,1.60
2018-12-31T13:44:23.671Z,1.17
2018-12-31T13:46:54.975Z,1.37
2018-12-31T13:49:27.406Z,2.07
2018-12-31T13:51:59.014Z,3.70
2018-12-31T13:54:31.204Z,8.93
2018-12-31T13:57:02.835Z,5.90
2018-12-31T13:59:35.250Z,3.47
2018-12-31T14:02:06.882Z,4.70
2018-12-31T14:04:39.178Z,3.80
2018-12-31T14:07:11.052Z,3.73
2018-12-31T14:09:42.651Z,3.00
2018-12-31T14:12:14.242Z,2.63
2018-12-31T14:14:46.175Z,3.27
2018-12-31T14:17:17.706Z,2.23
2018-12-31T14:19:50.395Z,2.50
2018-12-31T14:22:21.949Z,2.27
2018-12-31T14:24:53.851Z,2.70
2018-12-31T14:27:25.579Z,2.40
2018-12-31T14:29:57.148Z,2.50
2018-12-31T14:32:29.189Z,3.00
2018-12-31T14:35:00.737Z,2.90
2018-12-31T14:37:33.710Z,2.80
2018-12-31T14:40:04.862Z,2.83
2018-12-31T14:42:36.201Z,2.93
2018-12-31T14:45:07.444Z,3.23
2018-12-31T14:47:39.638Z,3.40
2018-12-31T14:50:11.300Z,3.50
2018-12-31T14:52:42.947Z,3.57
2018-12-31T14:55:14.512Z,3.33
2018-12-31T14:57:45.921Z,3.10
2018-12-31T15:00:18.021Z,3.03
2018-12-31T15:02:50.158Z,3.40
2018-12-31T15:05:22.020Z,3.43
2018-12-31T15:07:53.915Z,3.10
2018-12-31T15:10:26.378Z,3.60
2018-12-31T15:12:57.679Z,4.10
2018-12-31T15:15:28.967Z,4.10
2018-12-31T15:18:00.303Z,4.53
2018-12-31T15:20:32.136Z,4.90
2018-12-31T15:23:04.404Z,5.13
2018-12-31T15:25:36.238Z,5.03
2018-12-31T15:28:07.517Z,5.40
2018-12-31T15:30:39.200Z,7.63
2018-12-31T15:33:11.034Z,6.80
2018-12-31T15:35:43.287Z,7.60
2018-12-31T15:38:14.284Z,8.50
2018-12-31T15:40:45.580Z,13.30
2018-12-31T15:43:17.186Z,14.07
2018-12-31T15:45:49.132Z,17.33
2018-12-31T15:48:20.764Z,18.00
2018-12-31T15:50:52.032Z,16.20
2018-12-31T15:53:23.595Z,12.43
2018-12-31T15:55:55.237Z,13.53
2018-12-31T15:58:26.794Z,13.60
2018-12-31T16:00:58.698Z,17.13
2018-12-31T16:03:30.444Z,12.33
2018-12-31T16:06:02.381Z,11.63
2018-12-31T16:08:33.913Z,9.67
2018-12-31T16:11:05.404Z,10.53
2018-12-31T16:13:36.713Z,12.13
2018-12-31T16:16:09.059Z,14.13
2018-12-31T16:18:40.793Z,12.33
2018-12-31T16:21:12.723Z,14.17
2018-12-31T16:23:44.161Z,12.20
2018-12-31T16:26:16.485Z,13.63
2018-12-31T16:28:48.058Z,12.63
2018-12-31T16:31:20.026Z,15.17
2018-12-31T16:33:51.851Z,15.50
2018-12-31T16:36:23.132Z,17.43
2018-12-31T16:38:54.697Z,15.73
2018-12-31T16:41:26.281Z,13.40
2018-12-31T16:43:58.077Z,53.07
2018-12-31T16:46:29.868Z,63.60
2018-12-31T16:49:02.142Z,45.00
2018-12-31T16:51:33.696Z,34.70
2018-12-31T16:54:05.760Z,35.50
2018-12-31T16:56:37.633Z,18.73
2018-12-31T16:59:09.553Z,12.77
2018-12-31T17:01:41.136Z,13.87
2018-12-31T17:04:12.786Z,12.87
2018-12-31T17:06:44.648Z,9.87
2018-12-31T17:09:17.128Z,7.80
2018-12-31T17:11:48.959Z,8.33
2018-12-31T17:14:20.526Z,9.23
2018-12-31T17:16:51.966Z,28.90
2018-12-31T17:19:23.664Z,26.70
2018-12-31T17:21:55.293Z,34.67
2018-12-31T17:24:26.643Z,25.17
2018-12-31T17:26:58.190Z,26.40
2018-12-31T17:29:29.521Z,27.57
2018-12-31T17:32:01.079Z,14.60
2018-12-31T17:34:33.256Z,19.47
2018-12-31T17:37:05.120Z,24.50
2018-12-31T17:39:36.547Z,30.43
2018-12-31T17:42:09.805Z,80.10
2018-12-31T17:44:41.419Z,74.70
2018-12-31T17:47:13.717Z,36.40
2018-12-31T17:49:45.315Z,57.93
2018-12-31T17:52:17.517Z,77.03
2018-12-31T17:54:49.154Z,44.60
2018-12-31T17:57:20.828Z,49.87
2018-12-31T17:59:53.980Z,65.37
2018-12-31T18:02:25.857Z,68.97
2018-12-31T18:04:57.211Z,64.47
2018-12-31T18:07:28.862Z,65.83
2018-12-31T18:10:01.033Z,72.83
2018-12-31T18:12:32.660Z,73.57
2018-12-31T18:15:04.608Z,64.63
2018-12-31T18:17:36.620Z,63.27
2018-12-31T18:20:09.892Z,58.87
2018-12-31T18:22:41.968Z,61.97
2018-12-31T18:25:13.322Z,66.50
2018-12-31T18:27:45.399Z,72.40
2018-12-31T18:30:17.036Z,92.00
2018-12-31T18:32:48.700Z,90.73
2018-12-31T18:35:20.559Z,88.03
2018-12-31T18:37:51.591Z,150.27
2018-12-31T18:40:23.000Z,93.90
2018-12-31T18:42:54.583Z,60.27
2018-12-31T18:45:26.653Z,63.00
2018-12-31T18:47:58.427Z,58.63
2018-12-31T18:50:30.058Z,52.33
2018-12-31T18:53:01.380Z,43.53
2018-12-31T18:55:33.281Z,44.53
2018-12-31T18:58:04.871Z,46.37
2018-12-31T19:00:36.384Z,46.00
2018-12-31T19:03:08.241Z,49.67
2018-12-31T19:05:39.860Z,44.03
2018-12-31T19:08:11.666Z,38.00
2018-12-31T19:10:42.924Z,35.67
2018-12-31T19:13:15.138Z,34.83
2018-12-31T19:15:46.522Z,41.47
2018-12-31T19:18:18.493Z,38.37
2018-12-31T19:20:50.157Z,37.27
2018-12-31T19:23:21.801Z,29.03
2018-12-31T19:25:53.951Z,21.90
2018-12-31T19:28:26.696Z,39.83
2018-12-31T19:30:58.365Z,14.30
2018-12-31T19:33:29.839Z,6.97
2018-12-31T19:36:01.385Z,7.87
2018-12-31T19:38:32.387Z,5.40
2018-12-31T19:41:04.100Z,6.60
2018-12-31T19:43:35.955Z,5.97
2018-12-31T19:46:07.175Z,7.83
2018-12-31T19:48:38.512Z,8.70
2018-12-31T19:51:10.159Z,7.97
2018-12-31T19:53:43.282Z,6.53
2018-12-31T19:56:14.827Z,7.80
2018-12-31T19:58:46.358Z,5.80
2018-12-31T20:01:18.310Z,4.33
2018-12-31T20:03:50.221Z,5.33
2018-12-31T20:06:21.548Z,4.37
2018-12-31T20:08:52.554Z,4.43
2018-12-31T20:11:24.648Z,4.03
2018-12-31T20:13:55.959Z,4.90
2018-12-31T20:16:28.697Z,9.60
2018-12-31T20:19:00.333Z,12.17
2018-12-31T20:21:31.957Z,10.43
2018-12-31T20:24:03.531Z,10.33
2018-12-31T20:26:35.268Z,14.37
2018-12-31T20:29:06.965Z,8.40
2018-12-31T20:31:38.195Z,6.00
2018-12-31T20:34:10.100Z,4.33
2018-12-31T20:36:41.524Z,4.50
2018-12-31T20:39:12.867Z,3.50
2018-12-31T20:41:43.863Z,5.93
2018-12-31T20:44:15.616Z,6.67
2018-12-31T20:46:47.205Z,7.80
2018-12-31T20:49:18.522Z,9.90
2018-12-31T20:51:50.056Z,6.73
2018-12-31T20:54:21.809Z,5.30
2018-12-31T20:56:53.290Z,5.37
2018-12-31T20:59:25.409Z,5.00
2018-12-31T21:01:56.995Z,4.60
2018-12-31T21:04:28.280Z,4.37
2018-12-31T21:06:59.830Z,3.90
2018-12-31T21:09:31.598Z,3.50
2018-12-31T21:12:03.522Z,3.50
2018-12-31T21:14:35.440Z,4.30
2018-12-31T21:17:07.371Z,3.30
2018-12-31T21:19:38.788Z,3.60
2018-12-31T21:22:10.677Z,5.23
2018-12-31T21:24:42.242Z,4.67
2018-12-31T21:27:14.401Z,4.20
2018-12-31T21:29:46.271Z,5.13
2018-12-31T21:32:18.123Z,4.83
2018-12-31T21:34:49.903Z,5.67
2018-12-31T21:37:21.523Z,8.83
2018-12-31T21:39:53.155Z,7.67
2018-12-31T21:42:24.793Z,5.67
2018-12-31T21:44:56.150Z,14.80
2018-12-31T21:47:27.152Z,12.43
2018-12-31T21:49:58.679Z,15.13
2018-12-31T21:52:30.431Z,9.13
2018-12-31T21:55:01.680Z,8.57
2018-12-31T21:57:34.016Z,15.70
2018-12-31T22:00:05.995Z,17.63
2018-12-31T22:02:37.325Z,14.60
2018-12-31T22:05:08.414Z,7.83
2018-12-31T22:07:40.020Z,11.70
2018-12-31T22:10:11.577Z,12.90
2018-12-31T22:12:43.574Z,7.27
2018-12-31T22:15:14.880Z,8.67
2018-12-31T22:17:46.218Z,7.10
2018-12-31T22:20:17.751Z,7.23
2018-12-31T22:22:49.044Z,5.47
2018-12-31T22:25:20.925Z,5.40
2018-12-31T22:27:52.880Z,5.00
2018-12-31T22:30:24.390Z,4.60
2018-12-31T22:32:55.989Z,5.33
2018-12-31T22:35:27.648Z,5.50
2018-12-31T22:37:59.583Z,8.13
2018-12-31T22:40:31.619Z,6.93
2018-12-31T22:43:03.397Z,7.17
2018-12-31T22:45:34.723Z,5.97
2018-12-31T22:48:06.655Z,6.23
2018-12-31T22:50:38.716Z,7.43
2018-12-31T22:53:10.775Z,6.67
2018-12-31T22:55:42.621Z,6.97
2018-12-31T22:58:14.636Z,6.83
2018-12-31T23:00:46.383Z,6.80
2018-12-31T23:03:17.905Z,6.60
2018-12-31T23:05:49.540Z,8.07
2018-12-31T23:08:21.615Z,68.97
2018-12-31T23:10:53.258Z,75.60
2018-12-31T23:13:24.426Z,277.63
2018-12-31T23:15:56.354Z,122.03
2018-12-31T23:18:28.331Z,77.27
2018-12-31T23:21:00.168Z,72.10
2018-12-31T23:23:31.448Z,62.83
2018-12-31T23:26:03.176Z,44.20
2018-12-31T23:28:35.055Z,81.23
2018-12-31T23:31:06.093Z,76.73
2018-12-31T23:33:38.217Z,63.10
2018-12-31T23:36:09.829Z,36.67
2018-12-31T23:38:41.502Z,45.43
2018-12-31T23:41:12.813Z,31.80
2018-12-31T23:43:44.468Z,36.20
2018-12-31T23:46:15.923Z,179.90
2018-12-31T23:48:47.981Z,56.97
2018-12-31T23:51:19.834Z,75.33
2018-12-31T23:53:51.417Z,35.50
2018-12-31T23:56:22.956Z,22.47
2018-12-31T23:58:54.788Z,11.17
